createdAt,value
2018-05-26T00:00:22.469Z,13.38
2018-05-26T00:02:54.750Z,13.42
2018-05-26T00:05:27.036Z,13.40
2018-05-26T00:07:59.545Z,13.26
2018-05-26T00:10:31.815Z,12.70
2018-05-26T00:13:04.324Z,12.88
2018-05-26T00:15:36.748Z,12.95
2018-05-26T00:18:09.104Z,13.04
2018-05-26T00:20:41.386Z,13.12
2018-05-26T00:23:14.040Z,12.98
2018-05-26T00:25:46.339Z,12.58
2018-05-26T00:28:18.848Z,12.07
2018-05-26T00:30:51.099Z,11.79
2018-05-26T00:33:23.572Z,11.70
2018-05-26T00:35:56.009Z,11.68
2018-05-26T00:38:29.489Z,11.60
2018-05-26T00:41:01.901Z,11.51
2018-05-26T00:43:34.273Z,11.49
2018-05-26T00:46:06.465Z,11.43
2018-05-26T00:48:38.928Z,11.74
2018-05-26T00:51:11.327Z,11.83
2018-05-26T00:53:43.797Z,11.97
2018-05-26T00:56:16.284Z,11.97
2018-05-26T00:58:48.568Z,11.87
2018-05-26T01:01:20.999Z,11.81
2018-05-26T01:03:53.386Z,11.92
2018-05-26T01:06:25.636Z,11.95
2018-05-26T01:08:58.598Z,12.18
2018-05-26T01:11:31.021Z,12.10
2018-05-26T01:14:03.438Z,12.13
2018-05-26T01:16:35.799Z,12.25
2018-05-26T01:19:08.321Z,12.24
2018-05-26T01:21:40.797Z,12.37
2018-05-26T01:24:13.549Z,12.36
2018-05-26T01:26:45.923Z,12.36
2018-05-26T01:29:18.183Z,12.24
2018-05-26T01:31:50.478Z,12.31
2018-05-26T01:34:22.735Z,12.29
2018-05-26T01:36:55.160Z,12.22
2018-05-26T01:39:27.892Z,12.22
2018-05-26T01:42:00.328Z,12.25
2018-05-26T01:44:32.803Z,12.27
2018-05-26T01:47:05.158Z,12.29
2018-05-26T01:49:37.557Z,11.84
2018-05-26T01:52:09.938Z,12.02
2018-05-26T01:54:42.298Z,11.49
2018-05-26T01:57:14.762Z,11.08
2018-05-26T01:59:47.155Z,10.93
2018-05-26T02:02:19.553Z,10.99
2018-05-26T02:04:52.024Z,11.27
2018-05-26T02:07:24.314Z,11.46
2018-05-26T02:09:56.661Z,11.57
2018-05-26T02:12:28.966Z,11.56
2018-05-26T02:15:01.311Z,11.48
2018-05-26T02:17:33.537Z,11.43
2018-05-26T02:20:05.873Z,11.53
2018-05-26T02:22:38.153Z,11.67
2018-05-26T02:25:10.750Z,11.72
2018-05-26T02:27:43.232Z,11.58
2018-05-26T02:30:15.637Z,11.48
2018-05-26T02:32:47.936Z,11.53
2018-05-26T02:35:20.276Z,11.61
2018-05-26T02:37:52.563Z,11.62
2018-05-26T02:40:25.081Z,11.00
2018-05-26T02:42:57.523Z,10.78
2018-05-26T02:45:29.848Z,10.56
2018-05-26T02:48:02.135Z,10.87
2018-05-26T02:50:34.509Z,10.83
2018-05-26T02:53:06.951Z,11.00
2018-05-26T02:55:39.392Z,10.95
2018-05-26T02:58:11.781Z,11.03
2018-05-26T03:00:44.089Z,11.00
2018-05-26T03:03:16.518Z,11.15
2018-05-26T03:05:54.967Z,11.05
2018-05-26T03:08:33.505Z,11.05
2018-05-26T03:11:12.024Z,11.09
2018-05-26T03:13:50.578Z,11.09
2018-05-26T03:16:28.964Z,10.78
2018-05-26T03:19:01.400Z,10.28
2018-05-26T03:21:33.766Z,10.44
2018-05-26T03:24:06.089Z,10.59
2018-05-26T03:26:38.519Z,10.68
2018-05-26T03:29:10.873Z,10.32
2018-05-26T03:31:43.153Z,10.63
2018-05-26T03:34:15.539Z,10.65
2018-05-26T03:36:47.968Z,10.51
2018-05-26T03:39:20.255Z,10.54
2018-05-26T03:41:52.684Z,10.37
2018-05-26T03:44:25.017Z,10.44
2018-05-26T03:46:57.538Z,10.51
2018-05-26T03:49:29.825Z,10.72
2018-05-26T03:52:02.101Z,10.87
2018-05-26T03:54:46.527Z,11.24
2018-05-26T03:57:31.180Z,11.22
2018-05-26T04:00:11.316Z,11.32
2018-05-26T04:02:43.603Z,11.44
2018-05-26T04:05:16.013Z,11.54
2018-05-26T04:07:48.277Z,11.75
2018-05-26T04:10:20.459Z,11.95
2018-05-26T04:12:52.935Z,12.22
2018-05-26T04:15:25.159Z,12.51
2018-05-26T04:17:57.535Z,12.82
2018-05-26T04:20:29.794Z,12.98
2018-05-26T04:23:02.153Z,13.28
2018-05-26T04:25:34.427Z,13.33
2018-05-26T04:28:06.986Z,13.21
2018-05-26T04:30:39.452Z,13.40
2018-05-26T04:33:11.812Z,13.54
2018-05-26T04:35:44.025Z,13.60
2018-05-26T04:38:16.288Z,13.82
2018-05-26T04:40:48.540Z,14.02
2018-05-26T04:43:20.966Z,14.13
2018-05-26T04:45:53.445Z,13.92
2018-05-26T04:48:25.688Z,13.67
2018-05-26T04:50:57.946Z,14.13
2018-05-26T04:53:30.327Z,14.44
2018-05-26T04:56:02.819Z,14.72
2018-05-26T04:58:35.287Z,14.64
2018-05-26T05:01:07.694Z,14.23
2018-05-26T05:03:40.125Z,14.42
2018-05-26T05:06:12.466Z,14.65
2018-05-26T05:08:44.811Z,14.62
2018-05-26T05:11:17.260Z,14.99
2018-05-26T05:13:49.766Z,14.84
2018-05-26T05:16:22.195Z,14.99
2018-05-26T05:18:54.522Z,15.27
2018-05-26T05:21:26.959Z,15.87
2018-05-26T05:23:59.274Z,15.98
2018-05-26T05:26:31.630Z,15.44
2018-05-26T05:29:04.236Z,15.81
2018-05-26T05:31:36.590Z,16.38
2018-05-26T05:34:08.970Z,16.76
2018-05-26T05:36:41.228Z,17.20
2018-05-26T05:39:13.540Z,17.30
2018-05-26T05:41:47.588Z,17.33
2018-05-26T05:44:20.352Z,17.16
2018-05-26T05:46:52.538Z,17.49
2018-05-26T05:49:25.279Z,17.63
2018-05-26T05:51:58.469Z,17.90
2018-05-26T05:54:31.057Z,18.39
2018-05-26T05:57:03.636Z,17.94
2018-05-26T05:59:35.971Z,17.36
2018-05-26T06:02:08.400Z,17.21
2018-05-26T06:04:40.876Z,17.60
2018-05-26T06:07:13.773Z,17.83
2018-05-26T06:09:46.213Z,18.17
2018-05-26T06:12:18.597Z,18.22
2018-05-26T06:14:50.992Z,18.28
2018-05-26T06:17:25.303Z,18.53
2018-05-26T06:23:08.281Z,19.28
2018-05-26T06:25:40.644Z,19.01
2018-05-26T06:28:13.238Z,18.63
2018-05-26T06:30:45.665Z,18.56
2018-05-26T06:33:18.282Z,19.11
2018-05-26T06:35:50.951Z,19.59
2018-05-26T06:38:24.657Z,20.05
2018-05-26T06:40:57.210Z,20.54
2018-05-26T06:43:29.742Z,20.84
2018-05-26T06:46:02.044Z,21.39
2018-05-26T06:48:34.510Z,21.76
2018-05-26T06:51:06.979Z,22.09
2018-05-26T06:53:39.445Z,21.71
2018-05-26T06:56:11.879Z,21.74
2018-05-26T06:58:44.522Z,22.25
2018-05-26T07:01:16.908Z,22.39
2018-05-26T07:03:49.328Z,22.39
2018-05-26T07:06:21.816Z,22.25
2018-05-26T07:08:54.439Z,22.42
2018-05-26T07:11:26.792Z,23.01
2018-05-26T07:13:59.082Z,23.27
2018-05-26T07:16:31.550Z,23.28
2018-05-26T07:19:03.998Z,23.40
2018-05-26T07:21:36.295Z,23.73
2018-05-26T07:24:08.707Z,23.63
2018-05-26T07:26:40.984Z,23.65
2018-05-26T07:29:13.320Z,23.28
2018-05-26T07:31:46.879Z,23.76
2018-05-26T07:34:19.527Z,24.10
2018-05-26T07:36:51.975Z,24.51
2018-05-26T07:39:24.370Z,24.07
2018-05-26T07:41:56.649Z,23.40
2018-05-26T07:44:28.983Z,23.45
2018-05-26T07:47:01.407Z,24.06
2018-05-26T07:49:33.828Z,23.87
2018-05-26T07:52:06.301Z,24.28
2018-05-26T07:54:38.649Z,24.36
2018-05-26T07:57:11.087Z,24.88
2018-05-26T07:59:43.548Z,25.27
2018-05-26T08:02:16.026Z,24.72
2018-05-26T08:04:48.691Z,24.79
2018-05-26T08:07:20.972Z,25.06
2018-05-26T08:09:53.286Z,25.05
2018-05-26T08:12:25.744Z,24.46
2018-05-26T08:14:58.232Z,24.23
2018-05-26T08:17:30.619Z,24.29
2018-05-26T08:20:03.262Z,23.53
2018-05-26T08:22:35.616Z,23.73
2018-05-26T08:25:08.158Z,24.05
2018-05-26T08:27:40.527Z,24.19
2018-05-26T08:30:12.918Z,24.44
2018-05-26T08:32:45.387Z,24.48
2018-05-26T08:35:17.986Z,25.32
2018-05-26T08:37:50.483Z,25.84
2018-05-26T08:40:22.849Z,25.29
2018-05-26T08:42:55.240Z,25.90
2018-05-26T08:45:27.618Z,26.77
2018-05-26T08:48:00.122Z,26.59
2018-05-26T08:50:32.535Z,26.22
2018-05-26T08:53:04.986Z,25.95
2018-05-26T08:55:37.270Z,26.16
2018-05-26T08:58:09.665Z,25.87
2018-05-26T09:00:42.064Z,25.60
2018-05-26T09:03:14.492Z,26.10
2018-05-26T09:05:47.564Z,25.88
2018-05-26T09:08:20.077Z,25.70
2018-05-26T09:10:52.439Z,26.20
2018-05-26T09:13:24.891Z,26.63
2018-05-26T09:15:57.466Z,26.46
2018-05-26T09:18:29.715Z,26.49
2018-05-26T09:21:02.288Z,26.36
2018-05-26T09:23:34.769Z,26.05
2018-05-26T09:26:07.163Z,25.89
2018-05-26T09:28:39.669Z,26.33
2018-05-26T09:31:12.160Z,27.00
2018-05-26T09:33:44.695Z,26.96
2018-05-26T09:36:17.302Z,26.98
2018-05-26T09:38:49.719Z,26.89
2018-05-26T09:41:22.256Z,27.14
2018-05-26T09:43:54.488Z,27.49
2018-05-26T09:46:27.011Z,27.40
2018-05-26T09:48:59.358Z,27.42
2018-05-26T09:51:31.725Z,27.22
2018-05-26T09:54:04.223Z,27.06
2018-05-26T09:56:36.634Z,26.78
2018-05-26T09:59:08.867Z,27.31
2018-05-26T10:01:41.240Z,27.66
2018-05-26T10:04:13.717Z,27.62
2018-05-26T10:06:46.268Z,27.95
2018-05-26T10:09:24.398Z,28.33
2018-05-26T10:11:56.918Z,27.81
2018-05-26T10:14:29.248Z,28.25
2018-05-26T10:17:01.633Z,28.77
2018-05-26T10:19:34.081Z,28.58
2018-05-26T10:22:06.607Z,28.09
2018-05-26T10:24:39.062Z,28.05
2018-05-26T10:27:11.662Z,28.05
2018-05-26T10:29:44.032Z,28.44
2018-05-26T10:32:16.534Z,28.92
2018-05-26T10:34:49.140Z,28.85
2018-05-26T10:37:21.577Z,28.68
2018-05-26T10:39:54.028Z,27.78
2018-05-26T10:42:26.378Z,26.56
2018-05-26T10:44:58.698Z,25.73
2018-05-26T10:47:34.663Z,25.71
2018-05-26T10:50:07.092Z,25.59
2018-05-26T10:52:39.505Z,25.29
2018-05-26T10:55:11.880Z,25.04
2018-05-26T10:57:44.239Z,24.98
2018-05-26T11:00:16.782Z,24.76
2018-05-26T11:02:49.288Z,24.62
2018-05-26T11:05:21.813Z,24.62
2018-05-26T11:07:54.491Z,24.60
2018-05-26T11:10:26.834Z,24.82
2018-05-26T11:12:59.258Z,24.73
2018-05-26T11:15:31.727Z,24.80
2018-05-26T11:18:04.091Z,24.84
2018-05-26T11:20:36.508Z,24.97
2018-05-26T11:23:09.801Z,25.03
2018-05-26T11:25:42.266Z,25.09
2018-05-26T11:28:14.794Z,25.55
2018-05-26T11:30:47.228Z,25.46
2018-05-26T11:33:19.606Z,25.65
2018-05-26T11:35:52.166Z,25.89
2018-05-26T11:38:24.610Z,25.93
2018-05-26T11:40:56.930Z,26.19
2018-05-26T11:43:29.481Z,26.44
2018-05-26T11:46:01.804Z,26.02
2018-05-26T11:48:34.303Z,26.49
2018-05-26T11:51:06.753Z,26.48
2018-05-26T11:53:39.204Z,26.58
2018-05-26T11:56:11.628Z,26.66
2018-05-26T11:58:44.148Z,27.30
2018-05-26T12:01:16.410Z,27.28
2018-05-26T12:03:48.792Z,27.12
2018-05-26T12:06:21.909Z,27.11
2018-05-26T12:08:54.264Z,26.35
2018-05-26T12:11:26.806Z,26.23
2018-05-26T12:13:59.142Z,26.52
2018-05-26T12:16:31.524Z,27.01
2018-05-26T12:19:03.880Z,27.13
2018-05-26T12:21:36.150Z,26.82
2018-05-26T12:24:08.649Z,26.27
2018-05-26T12:26:41.003Z,25.93
2018-05-26T12:29:13.459Z,25.55
2018-05-26T12:31:45.854Z,25.21
2018-05-26T12:34:18.408Z,25.44
2018-05-26T12:36:51.065Z,25.29
2018-05-26T12:39:23.539Z,25.16
2018-05-26T12:41:56.024Z,25.31
2018-05-26T12:44:28.383Z,25.28
2018-05-26T12:47:00.925Z,24.77
2018-05-26T12:49:33.281Z,25.31
2018-05-26T12:52:05.814Z,25.69
2018-05-26T12:54:38.331Z,26.36
2018-05-26T12:57:10.769Z,26.63
2018-05-26T12:59:43.358Z,26.41
2018-05-26T13:02:15.600Z,26.84
2018-05-26T13:04:47.935Z,27.35
2018-05-26T13:07:20.396Z,26.98
2018-05-26T13:09:52.965Z,26.50
2018-05-26T13:12:25.441Z,26.60
2018-05-26T13:14:57.936Z,26.63
2018-05-26T13:17:30.197Z,26.85
2018-05-26T13:20:02.760Z,26.56
2018-05-26T13:22:35.182Z,26.00
2018-05-26T13:25:07.767Z,25.51
2018-05-26T13:27:40.230Z,25.27
2018-05-26T13:30:12.640Z,25.57
2018-05-26T13:32:45.158Z,26.17
2018-05-26T13:35:17.500Z,26.88
2018-05-26T13:37:50.450Z,27.28
2018-05-26T13:40:22.899Z,27.88
2018-05-26T13:42:55.422Z,27.78
2018-05-26T13:45:27.831Z,28.57
2018-05-26T13:48:00.298Z,28.21
2018-05-26T13:50:32.670Z,28.73
2018-05-26T13:53:05.188Z,29.63
2018-05-26T13:55:38.032Z,29.64
2018-05-26T13:58:10.598Z,29.88
2018-05-26T14:00:43.075Z,30.46
2018-05-26T14:03:15.506Z,30.96
2018-05-26T14:05:47.897Z,30.17
2018-05-26T14:08:20.409Z,30.00
2018-05-26T14:10:52.895Z,28.43
2018-05-26T14:13:25.394Z,27.47
2018-05-26T14:15:57.710Z,26.48
2018-05-26T14:18:30.196Z,25.51
2018-05-26T14:21:02.663Z,24.71
2018-05-26T14:23:35.081Z,25.05
2018-05-26T14:26:07.757Z,25.73
2018-05-26T14:28:40.151Z,25.83
2018-05-26T14:31:12.804Z,26.85
2018-05-26T14:33:45.409Z,27.62
2018-05-26T14:36:18.510Z,27.70
2018-05-26T14:38:50.904Z,26.09
2018-05-26T14:41:23.454Z,25.65
2018-05-26T14:43:55.906Z,24.58
2018-05-26T14:46:28.255Z,24.59
2018-05-26T14:49:00.574Z,23.93
2018-05-26T14:51:33.134Z,25.32
2018-05-26T14:54:05.550Z,26.46
2018-05-26T14:56:38.188Z,26.23
2018-05-26T14:59:10.675Z,25.55
2018-05-26T15:01:43.210Z,25.52
2018-05-26T15:04:21.825Z,26.52
2018-05-26T15:06:54.332Z,27.27
2018-05-26T15:09:26.696Z,28.22
2018-05-26T15:11:59.385Z,28.42
2018-05-26T15:14:31.822Z,29.95
2018-05-26T15:17:04.328Z,29.31
2018-05-26T15:19:36.829Z,30.38
2018-05-26T15:22:09.224Z,30.38
2018-05-26T15:24:41.906Z,30.60
2018-05-26T15:27:14.302Z,29.70
2018-05-26T15:29:46.649Z,28.78
2018-05-26T15:32:18.966Z,27.18
2018-05-26T15:34:51.371Z,26.41
2018-05-26T15:37:23.794Z,24.97
2018-05-26T15:39:56.387Z,23.93
2018-05-26T15:42:29.145Z,23.23
2018-05-26T15:45:01.561Z,22.61
2018-05-26T15:47:34.034Z,22.32
2018-05-26T15:50:06.499Z,22.36
2018-05-26T15:52:39.020Z,22.45
2018-05-26T15:55:11.491Z,22.23
2018-05-26T15:57:44.950Z,22.14
2018-05-26T16:00:18.469Z,21.89
2018-05-26T16:02:51.808Z,21.63
2018-05-26T16:05:24.131Z,21.70
2018-05-26T16:07:56.695Z,21.77
2018-05-26T16:10:29.409Z,21.97
2018-05-26T16:13:02.891Z,21.98
2018-05-26T16:15:35.362Z,22.08
2018-05-26T16:18:07.749Z,22.13
2018-05-26T16:20:40.219Z,21.68
2018-05-26T16:23:12.889Z,21.33
2018-05-26T16:25:45.122Z,21.62
2018-05-26T16:28:17.524Z,21.86
2018-05-26T16:30:50.505Z,22.01
2018-05-26T16:33:23.085Z,21.85
2018-05-26T16:35:55.480Z,21.94
2018-05-26T16:38:28.065Z,22.14
2018-05-26T16:41:00.684Z,22.27
2018-05-26T16:43:33.054Z,21.89
2018-05-26T16:46:05.389Z,21.79
2018-05-26T16:48:37.947Z,21.82
2018-05-26T16:51:10.682Z,21.86
2018-05-26T16:53:43.318Z,21.97
2018-05-26T16:56:16.659Z,21.87
2018-05-26T16:58:49.445Z,21.41
2018-05-26T17:01:21.816Z,21.31
2018-05-26T17:03:54.217Z,21.37
2018-05-26T17:06:26.561Z,21.45
2018-05-26T17:08:59.183Z,21.16
2018-05-26T17:11:31.616Z,20.88
2018-05-26T17:14:04.267Z,20.79
2018-05-26T17:16:36.548Z,20.71
2018-05-26T17:19:09.110Z,20.74
2018-05-26T17:21:41.557Z,20.68
2018-05-26T17:24:14.107Z,20.63
2018-05-26T17:26:46.531Z,20.36
2018-05-26T17:29:19.070Z,20.32
2018-05-26T17:31:51.705Z,20.22
2018-05-26T17:34:24.318Z,20.11
2018-05-26T17:36:56.616Z,19.92
2018-05-26T17:39:29.142Z,19.92
2018-05-26T17:42:01.761Z,19.98
2018-05-26T17:44:34.320Z,19.89
2018-05-26T17:47:06.664Z,19.68
2018-05-26T17:49:39.149Z,19.57
2018-05-26T17:52:11.599Z,19.45
2018-05-26T17:54:44.148Z,19.34
2018-05-26T17:57:16.628Z,19.20
2018-05-26T17:59:49.166Z,19.11
2018-05-26T18:02:21.590Z,18.95
2018-05-26T18:04:53.944Z,18.62
2018-05-26T18:07:26.211Z,18.67
2018-05-26T18:09:58.580Z,18.53
2018-05-26T18:12:30.992Z,18.48
2018-05-26T18:15:03.612Z,18.41
2018-05-26T18:17:36.027Z,18.38
2018-05-26T18:20:08.367Z,18.14
2018-05-26T18:22:40.915Z,17.97
2018-05-26T18:25:13.850Z,17.98
2018-05-26T18:27:47.689Z,17.87
2018-05-26T18:30:20.195Z,17.72
2018-05-26T18:32:52.829Z,17.68
2018-05-26T18:35:25.219Z,17.57
2018-05-26T18:37:57.913Z,17.55
2018-05-26T18:40:30.240Z,17.41
2018-05-26T18:43:02.826Z,17.28
2018-05-26T18:45:35.609Z,17.24
2018-05-26T18:48:07.947Z,17.24
2018-05-26T18:50:40.559Z,17.16
2018-05-26T18:53:13.457Z,17.10
2018-05-26T18:55:46.047Z,17.07
2018-05-26T18:58:18.610Z,17.04
2018-05-26T19:00:51.147Z,16.96
2018-05-26T19:03:23.608Z,16.91
2018-05-26T19:05:55.992Z,16.71
2018-05-26T19:08:28.468Z,16.66
2018-05-26T19:11:00.860Z,16.68
2018-05-26T19:57:19.812Z,15.45
2018-05-26T19:59:52.274Z,15.44
2018-05-26T20:02:24.780Z,15.44
2018-05-26T20:05:01.503Z,15.39
2018-05-26T20:07:34.999Z,15.34
2018-05-26T20:10:15.509Z,15.34
2018-05-26T20:12:53.383Z,15.40
2018-05-26T20:15:30.794Z,15.45
2018-05-26T20:18:03.379Z,15.49
2018-05-26T20:20:37.639Z,15.39
2018-05-26T20:23:10.583Z,15.35
2018-05-26T20:25:43.072Z,15.34
2018-05-26T20:28:24.374Z,15.14
2018-05-26T20:30:57.013Z,15.15
2018-05-26T20:33:29.713Z,15.21
2018-05-26T20:36:02.075Z,15.24
2018-05-26T20:41:13.558Z,15.10
2018-05-26T20:43:46.048Z,14.72
2018-05-26T20:46:18.343Z,14.43
2018-05-26T20:48:50.967Z,13.84
2018-05-26T20:51:28.824Z,13.45
2018-05-26T20:54:01.283Z,13.53
2018-05-26T20:56:33.779Z,13.86
2018-05-26T20:59:06.770Z,13.97
2018-05-26T21:01:40.586Z,14.07
2018-05-26T21:04:13.047Z,14.25
2018-05-26T21:06:45.608Z,14.29
2018-05-26T21:09:18.139Z,14.42
2018-05-26T21:11:50.592Z,14.42
2018-05-26T21:14:23.392Z,14.22
2018-05-26T21:16:55.784Z,14.29
2018-05-26T21:19:28.282Z,14.13
2018-05-26T21:22:00.817Z,14.23
2018-05-26T21:24:33.189Z,13.63
2018-05-26T21:27:05.607Z,13.60
2018-05-26T21:29:38.120Z,13.73
2018-05-26T21:32:10.634Z,13.63
2018-05-26T21:34:43.078Z,13.57
2018-05-26T21:37:15.545Z,13.71
2018-05-26T21:39:47.879Z,14.22
2018-05-26T21:42:20.297Z,14.31
2018-05-26T21:44:53.085Z,14.28
2018-05-26T21:47:25.552Z,14.30
2018-05-26T21:49:57.834Z,14.36
2018-05-26T21:52:30.323Z,14.14
2018-05-26T21:55:02.850Z,14.23
2018-05-26T21:57:35.189Z,14.20
2018-05-26T22:00:07.954Z,14.15
2018-05-26T22:02:40.279Z,14.10
2018-05-26T22:05:12.779Z,14.06
2018-05-26T22:07:45.056Z,14.03
2018-05-26T22:10:17.584Z,14.11
2018-05-26T22:12:49.859Z,14.01
2018-05-26T22:15:22.516Z,13.92
2018-05-26T22:17:54.948Z,13.93
2018-05-26T22:20:27.319Z,13.99
2018-05-26T22:22:59.731Z,14.02
2018-05-26T22:25:32.251Z,13.95
2018-05-26T22:28:04.606Z,13.98
2018-05-26T22:30:37.098Z,13.52
2018-05-26T22:33:09.514Z,13.19
2018-05-26T22:35:42.029Z,13.26
2018-05-26T22:38:14.459Z,13.49
2018-05-26T22:40:46.797Z,13.58
2018-05-26T22:43:19.363Z,13.55
2018-05-26T22:45:51.985Z,13.54
2018-05-26T22:48:24.445Z,13.57
2018-05-26T22:50:56.819Z,13.70
2018-05-26T22:53:29.154Z,13.53
2018-05-26T22:56:01.586Z,13.28
2018-05-26T22:58:33.975Z,13.20
2018-05-26T23:01:06.783Z,13.04
2018-05-26T23:03:39.317Z,13.01
2018-05-26T23:06:11.646Z,13.05
2018-05-26T23:08:44.103Z,13.05
2018-05-26T23:11:16.496Z,13.28
2018-05-26T23:13:48.950Z,13.31
2018-05-26T23:16:21.639Z,13.43
2018-05-26T23:18:53.989Z,13.39
2018-05-26T23:21:26.355Z,13.21
2018-05-26T23:23:58.709Z,13.15
2018-05-26T23:26:31.219Z,13.34
2018-05-26T23:29:03.535Z,13.36
2018-05-26T23:31:36.148Z,13.42
2018-05-26T23:34:08.457Z,13.55
2018-05-26T23:36:40.807Z,13.50
2018-05-26T23:39:13.219Z,13.70
2018-05-26T23:41:45.795Z,13.84
2018-05-26T23:44:18.234Z,13.94
2018-05-26T23:46:51.674Z,13.60
2018-05-26T23:49:24.146Z,13.84
2018-05-26T23:51:56.501Z,14.07
2018-05-26T23:54:28.992Z,14.16
2018-05-26T23:57:01.521Z,14.22
2018-05-26T23:59:34.033Z,14.28
